Latest Weather Observations for Edinburgh

IDS60801

Issued at 5:31 pm CDT Saturday 31 January 2015 (issued every 30 minutes, with the page automatically refreshed every 10 minutes)

About weather observations | Map of weather stations | Latest weather observations for SA | Other Formats
Station Details ID: 023083 Name: EDINBURGH RAAF Lat: -34.71 Lon: 138.62 Height: 16.54 m
Data from the previous 72 hours. | See also: Recent months at Edinburgh
Date/Time
CDT
Temp
°C
App
Temp
°C
Dew
Point
Rel
Hum
%
Delta-T
°C
Wind Press
QNH
hPa
Press
MSL
hPa
Rain
since 9 am
mm
Dir
 
Spd
km/h
Gust
km/h
Spd
kts
Gust
kts
31/05:30pm 22.0 16.2 7.8 40 7.4 SSE 28 37 15 20 1014.4 1014.3 0.0
31/05:00pm 23.0 17.4 7.1 36 8.2 S 26 43 14 23 1014.0 1013.9 0.0
31/04:30pm 22.9 16.7 7.8 38 7.9 S 30 41 16 22 1014.1 1014.0 0.0
31/04:00pm 23.9 18.4 7.5 35 8.6 SSE 26 41 14 22 1014.0 1013.9 0.0
31/03:54pm 24.2 18.8 7.8 35 8.7 SSE 26 41 14 22 1013.8 1013.7 0.0
31/03:30pm 24.1 21.1 5.9 31 9.3 ESE 11 20 6 11 1013.9 1013.8 0.0
31/03:00pm 23.6 20.1 5.5 31 9.1 SSE 13 30 7 16 1014.2 1014.1 0.0
31/02:30pm 24.4 21.1 6.2 31 9.3 SSE 13 22 7 12 1014.2 1014.1 0.0
31/02:00pm 23.5 19.6 5.4 31 9.1 ESE 15 26 8 14 1014.3 1014.2 0.0
31/01:30pm 23.3 20.0 4.8 30 9.2 SSW 11 24 6 13 1014.5 1014.4 0.0
31/01:00pm 22.5 19.4 5.4 33 8.6 SSE 11 22 6 12 1014.8 1014.7 0.0
31/12:30pm 22.3 18.5 5.7 34 8.3 SSE 15 22 8 12 1015.3 1015.2 0.0
31/12:00pm 22.3 18.9 6.1 35 8.2 E 13 20 7 11 1015.9 1015.8 0.0
31/11:30am 20.6 17.3 4.6 35 7.8 SSW 11 24 6 13 1016.2 1016.1 0.0
31/11:00am 20.8 17.2 5.2 36 7.7 E 13 24 7 13 1016.3 1016.2 0.0
31/10:30am 20.6 17.2 5.8 38 7.4 E 13 19 7 10 1016.4 1016.3 0.0
31/10:00am 19.7 16.2 7.4 45 6.3 E 15 22 8 12 1016.4 1016.3 0.0
31/09:30am 18.8 15.1 7.9 49 5.6 E 17 24 9 13 1016.6 1016.5 0.0
31/09:00am 17.9 14.0 7.3 50 5.3 ESE 17 28 9 15 1016.5 1016.4 0.0
31/08:30am 17.4 14.2 8.3 55 4.6 ESE 15 24 8 13 1016.3 1016.2 0.0
31/08:00am 16.6 14.2 8.6 59 4.1 ESE 11 19 6 10 1016.0 1015.9 0.0
31/07:30am 15.5 13.1 8.7 64 3.5 ESE 11 20 6 11 1015.6 1015.5 0.0
31/07:00am 14.7 12.7 8.6 67 3.1 SE 9 17 5 9 1015.2 1015.1 0.0
31/06:30am 14.3 12.3 8.5 68 2.9 SE 9 13 5 7 1015.2 1015.1 0.0
31/06:00am 14.4 12.2 7.9 65 3.2 SE 9 13 5 7 1015.0 1014.9 0.0
31/05:30am 14.7 12.0 7.5 62 3.6 SE 11 19 6 10 1014.7 1014.6 0.0
31/05:00am 14.9 11.5 7.7 62 3.6 ESE 15 28 8 15 1014.2 1014.1 0.0
31/04:30am 15.1 12.1 7.9 62 3.6 ESE 13 20 7 11 1014.0 1013.9 0.0
31/04:00am 15.3 12.7 7.6 60 3.8 ESE 11 19 6 10 1013.8 1013.7 0.0
31/03:30am 15.7 12.4 8.2 61 3.8 SE 15 20 8 11 1013.6 1013.5 0.0
31/03:00am 15.7 13.9 9.4 66 3.3 SE 9 22 5 12 1013.7 1013.6 0.0
31/02:30am 16.1 13.1 9.3 64 3.5 SSE 15 20 8 11 1013.9 1013.8 0.0
31/02:00am 15.9 13.6 9.1 64 3.5 S 11 17 6 9 1014.1 1014.0 0.0
31/01:30am 15.8 14.5 9.9 68 3.1 S 7 13 4 7 1014.3 1014.2 0.0
31/01:00am 15.9 14.2 9.8 67 3.2 S 9 11 5 6 1014.3 1014.2 0.0
31/12:30am 16.3 14.5 9.5 64 3.5 S 9 13 5 7 1014.5 1014.4 0.0
31/12:00am 16.4 14.5 9.1 62 3.8 SSE 9 17 5 9 1014.5 1014.4 0.0
 
Date/Time
CDT
Temp
°C
App
Temp
°C
Dew
Point
Rel
Hum
%
Delta-T
°C
Wind Press
QNH
hPa
Press
MSL
hPa
Rain
since 9 am
mm
Dir
 
Spd
km/h
Gust
km/h
Spd
kts
Gust
kts
30/11:30pm 16.6 14.0 9.3 62 3.8 SSE 13 19 7 10 1014.4 1014.3 0.0
30/11:00pm 16.9 14.3 9.3 61 4.0 SSE 13 20 7 11 1014.6 1014.5 0.0
30/10:30pm 17.2 13.8 9.1 59 4.2 SSE 17 30 9 16 1014.6 1014.5 0.0
30/10:00pm 17.7 13.6 8.6 55 4.7 SSE 20 28 11 15 1014.4 1014.3 0.0
30/09:30pm 18.6 14.3 7.7 49 5.6 SE 20 30 11 16 1014.1 1014.0 0.0
30/09:00pm 19.8 15.3 6.9 43 6.5 SE 20 32 11 17 1013.7 1013.6 0.0
30/08:30pm 21.5 17.5 6.6 38 7.6 SE 17 22 9 12 1013.4 1013.3 0.0
30/08:00pm 23.5 19.6 5.4 31 9.1 SSE 15 22 8 12 1013.1 1013.0 0.0
30/07:30pm 24.7 20.0 5.0 28 9.9 SE 19 28 10 15 1012.7 1012.6 0.0
30/07:00pm 26.0 21.0 4.5 25 10.8 S 20 32 11 17 1012.4 1012.3 0.0
30/06:30pm 26.5 21.7 4.9 25 11.0 SE 19 32 10 17 1012.1 1012.0 0.0
30/06:00pm 27.2 22.6 5.5 25 11.2 SSE 19 30 10 16 1011.9 1011.8 0.0
30/05:30pm 28.0 23.4 5.6 24 11.6 SSW 19 35 10 19 1012.0 1011.9 0.0
30/05:04pm 27.9 21.8 6.6 26 11.3 SSW 28 48 15 26 1011.9 1011.8 0.0
30/05:00pm 28.6 21.9 3.5 20 12.6 SSW 28 41 15 22 1012.1 1012.0 0.0
30/04:30pm 28.4 21.6 7.1 26 11.4 SW 32 41 17 22 1012.2 1012.1 0.0
30/04:00pm 27.1 20.8 7.5 29 10.5 WSW 30 37 16 20 1012.6 1012.5 0.0
30/03:30pm 26.8 20.5 7.3 29 10.4 SW 30 35 16 19 1013.1 1013.0 0.0
30/03:00pm 26.9 20.2 7.4 29 10.4 SW 32 41 17 22 1013.5 1013.4 0.0
30/02:30pm 26.6 20.7 7.6 30 10.1 SW 28 35 15 19 1014.0 1013.9 0.0
30/02:00pm 26.1 20.8 6.7 29 10.2 SW 24 32 13 17 1014.3 1014.2 0.0
30/01:30pm 26.3 22.1 8.3 32 9.7 W 20 32 11 17 1014.7 1014.6 0.0
30/01:00pm 25.5 21.4 6.2 29 10.0 SW 17 24 9 13 1015.1 1015.0 0.0
30/12:30pm 25.6 21.1 4.1 25 10.7 S 17 32 9 17 1015.5 1015.4 0.0
30/12:00pm 25.0 21.9 5.7 29 9.9 ESE 11 20 6 11 1015.8 1015.7 0.0
30/11:30am 24.3 19.9 4.6 28 9.8 S 17 26 9 14 1016.2 1016.1 0.0
30/11:00am 23.4 19.9 5.3 31 9.1 E 13 19 7 10 1016.3 1016.2 0.0
30/10:30am 22.7 20.2 6.5 35 8.3 E 9 19 5 10 1016.6 1016.5 0.0
30/10:00am 21.4 18.6 5.3 35 8.0 ENE 9 13 5 7 1016.8 1016.7 0.0
30/09:30am 21.4 18.2 5.3 35 8.0 E 11 15 6 8 1016.7 1016.6 0.0
30/09:00am 20.2 17.0 5.1 37 7.4 ESE 11 15 6 8 1016.7 1016.6 0.0
30/08:30am 19.5 17.2 4.8 38 7.1 WSW 6 7 3 4 1016.5 1016.4 0.0
30/08:00am 19.1 16.7 5.2 40 6.8 S 7 9 4 5 1016.2 1016.1 0.0
30/07:30am 18.0 14.9 5.6 44 6.0 WNW 11 13 6 7 1015.8 1015.7 0.0
30/07:00am 17.4 14.6 5.0 44 5.9 NNE 9 15 5 8 1015.5 1015.4 0.0
30/06:30am 17.4 15.1 4.7 43 6.0 ESE 6 11 3 6 1015.0 1014.9 0.0
30/06:00am 18.0 14.4 4.9 42 6.3 E 13 24 7 13 1014.7 1014.6 0.0
30/05:30am 18.5 12.8 5.0 41 6.5 E 24 35 13 19 1014.3 1014.2 0.0
30/05:00am 18.9 13.2 5.0 40 6.7 E 24 35 13 19 1014.1 1014.0 0.0
30/04:30am 19.1 13.5 5.2 40 6.8 E 24 37 13 20 1013.9 1013.8 0.0
30/04:00am 19.2 13.9 6.7 44 6.3 E 24 44 13 24 1014.1 1014.0 0.0
30/03:30am 19.4 14.3 7.5 46 6.1 E 24 39 13 21 1014.3 1014.2 0.0
30/03:00am 19.7 14.5 8.7 49 5.7 E 26 39 14 21 1014.3 1014.2 0.0
30/02:30am 19.7 15.9 9.9 53 5.2 E 20 33 11 18 1014.4 1014.3 0.0
30/02:00am 19.7 16.4 11.5 59 4.5 E 20 32 11 17 1014.5 1014.4 0.0
30/01:30am 19.1 16.9 12.1 64 3.9 SE 15 22 8 12 1014.7 1014.6 0.0
30/01:00am 19.4 17.9 11.9 62 4.2 E 11 17 6 9 1014.8 1014.7 0.0
30/12:30am 19.8 17.1 11.6 59 4.5 ESE 17 22 9 12 1014.9 1014.8 0.0
30/12:00am 19.6 17.9 11.1 58 4.6 SE 11 17 6 9 1015.2 1015.1 0.0
 
Date/Time
CDT
Temp
°C
App
Temp
°C
Dew
Point
Rel
Hum
%
Delta-T
°C
Wind Press
QNH
hPa
Press
MSL
hPa
Rain
since 9 am
mm
Dir
 
Spd
km/h
Gust
km/h
Spd
kts
Gust
kts
29/11:30pm 19.7 18.3 10.9 57 4.8 SSE 9 15 5 8 1015.3 1015.2 0.0
29/11:00pm 19.9 17.6 10.6 55 5.0 SE 13 19 7 10 1015.4 1015.3 0.0
29/10:30pm 20.2 17.9 10.3 53 5.3 SE 13 20 7 11 1015.5 1015.4 0.0
29/10:00pm 20.6 17.4 10.1 51 5.7 ESE 17 24 9 13 1015.6 1015.5 0.0
29/09:30pm 21.8 17.9 9.3 45 6.7 E 20 32 11 17 1015.3 1015.2 0.0
29/09:00pm 22.8 18.8 8.1 39 7.7 SE 19 28 10 15 1015.1 1015.0 0.0
29/08:30pm 24.1 20.7 7.7 35 8.6 SE 15 20 8 11 1014.7 1014.6 0.0
29/08:00pm 25.4 20.8 6.6 30 9.8 ESE 20 30 11 16 1014.4 1014.3 0.0
29/07:30pm 26.8 22.0 5.7 26 10.9 E 20 30 11 16 1014.1 1014.0 0.0
29/07:00pm 27.8 23.0 5.4 24 11.6 ESE 20 35 11 19 1013.8 1013.7 0.0
29/06:30pm 28.5 23.7 5.4 23 12.0 ENE 20 30 11 16 1013.5 1013.4 0.0
29/06:00pm 29.1 23.6 3.9 20 12.8 E 22 32 12 17 1013.6 1013.5 0.0
29/05:30pm 29.3 24.7 -0.9 14 14.1 E 13 20 7 11 1013.7 1013.6 0.0
29/05:00pm 29.0 23.5 -2.2 13 14.2 E 17 28 9 15 1013.8 1013.7 0.0
29/04:30pm 30.5 26.3 -1.0 13 14.8 ESE 11 22 6 12 1014.0 1013.9 0.0
29/04:00pm 29.2 24.1 -2.0 13 14.3 E 15 24 8 13 1014.4 1014.3 0.0
29/03:30pm 29.1 23.6 -2.1 13 14.3 SE 17 32 9 17 1014.8 1014.7 0.0
29/03:00pm 28.8 23.9 -0.4 15 13.7 E 15 26 8 14 1015.1 1015.0 0.0
29/02:30pm 28.4 23.5 1.8 18 13.0 E 17 30 9 16 1015.6 1015.5 0.0
29/02:00pm 27.7 22.7 1.2 18 12.7 E 17 28 9 15 1016.0 1015.9 0.0
29/01:30pm 27.4 23.0 2.5 20 12.2 ESE 15 22 8 12 1016.3 1016.2 0.0
29/01:00pm 26.8 21.9 2.0 20 12.0 E 17 26 9 14 1016.7 1016.6 0.0
29/12:30pm 26.9 22.4 4.0 23 11.5 ESE 17 26 9 14 1017.0 1016.9 0.0
29/12:00pm 25.9 21.3 3.8 24 11.0 E 17 28 9 15 1017.3 1017.2 0.0
29/11:30am 24.9 20.3 5.7 29 9.8 E 19 28 10 15 1017.5 1017.4 0.0
29/11:00am 24.3 20.6 6.1 31 9.3 ESE 15 22 8 12 1017.6 1017.5 0.0
29/10:30am 23.0 20.4 5.9 33 8.6 E 9 15 5 8 1017.7 1017.6 0.0
29/10:00am 22.6 19.3 6.4 35 8.3 ENE 13 20 7 11 1017.7 1017.6 0.0
29/09:30am 22.0 18.7 6.3 36 7.9 E 13 20 7 11 1017.7 1017.6 0.0
29/09:00am 20.8 17.5 6.4 39 7.2 E 13 26 7 14 1017.7 1017.6 0.0
29/08:30am 19.9 16.1 5.9 40 6.9 ENE 15 20 8 11 1017.3 1017.2 0.0
29/08:00am 19.4 16.1 6.5 43 6.5 ESE 13 24 7 13 1016.8 1016.7 0.0
29/07:30am 18.7 14.1 6.5 45 6.1 ESE 20 32 11 17 1016.1 1016.0 0.0
29/07:00am 18.1 12.3 6.3 46 5.8 ESE 26 37 14 20 1015.7 1015.6 0.0
29/06:30am 17.9 12.1 6.4 47 5.7 ESE 26 39 14 21 1015.5 1015.4 0.0
29/06:00am 18.4 12.7 6.6 46 5.9 ESE 26 39 14 21 1015.2 1015.1 0.0
29/05:30am 18.7 12.7 6.9 46 5.9 ESE 28 43 15 23 1014.8 1014.7 0.0
29/05:20am 18.8 12.8 6.9 46 6.0 ESE 28 46 15 25 1014.8 1014.7 0.0
29/05:00am 19.0 12.6 6.8 45 6.1 ESE 30 46 16 25 1014.8 1014.7 0.0
29/04:30am 19.3 14.1 7.1 45 6.2 ESE 24 37 13 20 1014.6 1014.5 0.0
29/04:18am 19.5 13.5 6.9 44 6.4 ESE 28 46 15 25 1014.6 1014.5 0.0
29/04:00am 19.6 14.3 7.0 44 6.4 ESE 24 41 13 22 1014.6 1014.5 0.0
29/03:30am 19.7 14.3 8.1 47 6.0 ESE 26 39 14 21 1014.7 1014.6 0.0
29/03:00am 19.9 15.6 9.2 50 5.7 E 22 33 12 18 1014.6 1014.5 0.0
29/02:30am 19.6 17.3 10.6 56 4.9 E 13 20 7 11 1014.8 1014.7 0.0
29/02:00am 18.8 18.1 12.1 65 3.7 SE 7 13 4 7 1015.2 1015.1 0.0
29/01:30am 18.3 17.8 12.7 70 3.1 SE 7 9 4 5 1015.4 1015.3 0.0
29/01:00am 18.6 17.5 13.0 70 3.2 SSE 11 19 6 10 1015.5 1015.4 0.0
29/12:30am 18.6 16.6 12.8 69 3.3 ESE 15 24 8 13 1015.4 1015.3 0.0
29/12:00am 18.1 16.4 12.5 70 3.1 SSE 13 17 7 9 1015.7 1015.6 0.0
 
Date/Time
CDT
Temp
°C
App
Temp
°C
Dew
Point
Rel
Hum
%
Delta-T
°C
Wind Press
QNH
hPa
Press
MSL
hPa
Rain
since 9 am
mm
Dir
 
Spd
km/h
Gust
km/h
Spd
kts
Gust
kts
28/11:30pm 18.2 16.5 12.4 69 3.2 S 13 15 7 8 1016.0 1015.9 0.0
28/11:00pm 18.4 16.6 12.2 67 3.4 S 13 17 7 9 1016.2 1016.1 0.0
28/10:30pm 18.8 16.9 11.9 64 3.8 S 13 20 7 11 1016.3 1016.2 0.0
28/10:00pm 19.3 16.5 11.3 60 4.4 SSE 17 24 9 13 1016.2 1016.1 0.0
28/09:30pm 19.8 16.9 11.0 57 4.8 S 17 22 9 12 1016.1 1016.0 0.0
28/09:00pm 20.5 17.7 10.0 51 5.6 SE 15 26 8 14 1015.8 1015.7 0.0
28/08:30pm 21.7 18.7 9.3 45 6.6 SSE 15 24 8 13 1015.7 1015.6 0.0
28/08:00pm 22.8 18.7 7.8 38 7.9 ESE 19 28 10 15 1015.4 1015.3 0.0
28/07:30pm 23.9 20.6 7.9 36 8.4 SE 15 24 8 13 1015.1 1015.0 0.0
28/07:00pm 24.3 20.1 7.4 34 8.9 ESE 19 28 10 15 1015.0 1014.9 0.0
28/06:30pm 25.1 20.7 7.3 32 9.4 ESE 20 32 11 17 1014.9 1014.8 0.0
28/06:00pm 25.7 21.6 6.3 29 10.1 ESE 17 26 9 14 1014.7 1014.6 0.0

Other Formats:

Comma delimited format used in spreadsheet applications
http://www.bom.gov.au/fwo/IDS60801/IDS60801.95676.axf

JavaScript Object Notation format (JSON) in row-major order
http://www.bom.gov.au/fwo/IDS60801/IDS60801.95676.json